Dades de l'estació automàtica Castellnou de Bages

?
?

Resum diari

21:30 TU
Dades diàries de l'estació meteorològica
Temperatura mitjana 3.5 °C
Temperatura màxima 9.4 °C 13:36 TU
Temperatura mínima -1.3 °C 5:35 TU
Humitat relativa mitjana 77%
Precipitació acumulada 0.0 mm
Ratxa màxima del vent (10 m) 33.1 km/h - 261º 1:32 TU
Irradiació solar global 8.7 MJ/m2

El tram horari està expressat en Temps Universal (TU). Cal sumar una hora en horari d'hivern i dues en horari d'estiu per passar a l'hora oficial.

Castellnou de Bages

Metadades estació meteorològica
Municipi Castellnou de Bages
Comarca Bages
Altitud 507 m
Data alta 22.01.1998
Estat actual Operativa
Dades de període
Període
TU
TM
°C
TX
°C
TN
°C
HRM
%
PPT
mm
VVM (10 m)
km/h
DVM (10 m)
graus
VVX (10 m)
km/h
RS
W/m2
00:00 - 00:30 2.1 2.1 1.9 71 0.0 12.6 266 22.7 0
00:30 - 01:00 1.8 2.0 1.5 73 0.0 14.0 260 29.2 0
01:00 - 01:30 1.6 1.7 1.4 75 0.0 15.1 257 25.9 0
01:30 - 02:00 1.6 1.7 1.6 77 0.0 20.2 265 33.1 0
02:00 - 02:30 1.4 1.6 1.3 78 0.0 13.7 264 26.6 0
02:30 - 03:00 0.9 1.4 0.4 80 0.0 9.4 246 23.8 0
03:00 - 03:30 0.2 0.6 -0.1 84 0.0 4.3 256 14.4 0
03:30 - 04:00 1.0 1.2 0.7 82 0.0 11.5 276 23.0 0
04:00 - 04:30 -0.1 1.2 -1.2 86 0.0 7.2 357 15.5 0
04:30 - 05:00 -0.7 -0.3 -1.1 89 0.0 6.1 20 13.0 0
05:00 - 05:30 -1.1 -0.7 -1.3 90 0.0 7.6 20 12.6 0
05:30 - 06:00 -1.0 -0.7 -1.3 90 0.0 7.2 7 10.8 0
06:00 - 06:30 -1.0 -0.8 -1.2 90 0.0 6.5 22 10.8 0
06:30 - 07:00 -0.8 -0.6 -1.1 88 0.0 5.4 21 8.6 2
07:00 - 07:30 -0.5 -0.1 -0.7 88 0.0 4.3 4 7.9 24
07:30 - 08:00 -0.1 0.0 -0.1 86 0.0 4.3 8 8.6 45
08:00 - 08:30 1.1 2.3 0.0 83 0.0 4.3 346 10.8 182
08:30 - 09:00 2.5 3.1 2.2 82 0.0 5.4 276 19.1 235
09:00 - 09:30 3.1 3.6 2.6 77 0.0 5.8 324 14.4 336
09:30 - 10:00 4.0 4.5 3.6 75 0.0 5.4 295 12.2 372
10:00 - 10:30 4.1 5.0 3.3 75 0.0 5.4 45 10.8 416
10:30 - 11:00 5.4 6.5 4.4 70 0.0 4.3 100 10.4 449
11:00 - 11:30 5.6 6.3 5.2 71 0.0 5.8 61 11.2 475
11:30 - 12:00 6.4 7.5 5.6 67 0.0 5.0 116 17.3 447
12:00 - 12:30 7.8 8.3 7.3 57 0.0 9.4 257 18.7 468
12:30 - 13:00 7.5 8.0 7.2 58 0.0 8.3 256 22.0 217
13:00 - 13:30 8.4 9.2 7.3 58 0.0 11.5 241 22.3 342
13:30 - 14:00 8.9 9.4 8.3 58 0.0 14.0 228 22.7 314
14:00 - 14:30 8.5 8.9 8.2 58 0.0 11.9 257 20.2 284
14:30 - 15:00 7.9 8.4 7.5 60 0.0 11.5 248 24.1 142
15:00 - 15:30 7.0 7.5 6.7 64 0.0 9.7 245 18.7 75
15:30 - 16:00 6.3 6.7 6.1 69 0.0 7.2 230 13.7 30
16:00 - 16:30 5.9 6.1 5.7 73 0.0 6.8 245 13.0 3
16:30 - 17:00 5.5 5.7 5.2 76 0.0 6.8 242 13.7 0
17:00 - 17:30 4.9 5.2 4.7 79 0.0 5.0 243 9.0 0
17:30 - 18:00 4.9 5.1 4.7 81 0.0 6.8 252 13.7 0
18:00 - 18:30 4.6 5.0 4.3 83 0.0 5.4 245 8.6 0
18:30 - 19:00 4.4 4.7 4.2 85 0.0 8.6 255 13.7 0
19:00 - 19:30 4.5 4.7 4.4 84 0.0 6.8 263 10.4 0
19:30 - 20:00 4.5 4.7 4.3 85 0.0 7.2 251 10.8 0
20:00 - 20:30 4.0 4.4 3.8 87 0.0 7.9 228 14.4 0
20:30 - 21:00 4.2 4.4 4.0 87 0.0 9.4 232 15.5 0
21:00 - 21:30 3.8 4.3 3.5 88 0.0 5.8 222 9.7 0
21:30 - 22:00 3.3 3.5 3.1 90 0.0 2.9 224 6.1 0

Les dades en taronja només han passat un control de qualitat automàtic. Resta pendent la seva validació definitiva.